createdAt,value
2024-04-24T00:02:02.980Z,9.20
2024-04-24T00:05:07.295Z,8.70
2024-04-24T00:08:10.682Z,8.90
2024-04-24T00:11:19.174Z,8.60
2024-04-24T00:14:22.749Z,8.40
2024-04-24T00:17:26.630Z,8.60
2024-04-24T00:20:29.935Z,9.20
2024-04-24T00:23:33.477Z,8.80
2024-04-24T00:26:36.863Z,8.30
2024-04-24T00:29:40.566Z,8.50
2024-04-24T00:32:44.068Z,7.90
2024-04-24T00:35:47.820Z,8.30
2024-04-24T00:38:51.318Z,9.10
2024-04-24T00:41:54.760Z,8.00
2024-04-24T00:44:58.793Z,8.30
2024-04-24T00:48:03.007Z,8.30
2024-04-24T00:51:06.716Z,8.40
2024-04-24T00:54:10.881Z,7.20
2024-04-24T00:57:14.344Z,7.60
2024-04-24T01:00:18.556Z,7.00
2024-04-24T01:03:22.513Z,7.60
2024-04-24T01:06:26.346Z,7.30
2024-04-24T01:09:29.640Z,7.30
2024-04-24T01:12:32.961Z,7.00
2024-04-24T01:15:38.015Z,7.00
2024-04-24T01:18:45.577Z,6.40
2024-04-24T01:21:57.483Z,6.60
2024-04-24T01:25:06.671Z,6.30
2024-04-24T01:28:10.084Z,6.10
2024-04-24T01:31:13.479Z,5.30
2024-04-24T01:34:17.118Z,5.70
2024-04-24T01:37:20.552Z,5.20
2024-04-24T01:40:24.211Z,5.40
2024-04-24T01:43:27.604Z,5.20
2024-04-24T01:46:30.954Z,5.70
2024-04-24T01:49:34.330Z,5.10
2024-04-24T01:52:37.827Z,5.40
2024-04-24T01:55:41.436Z,5.00
2024-04-24T01:58:45.546Z,6.00
2024-04-24T02:01:49.776Z,5.90
2024-04-24T02:04:53.324Z,5.60
2024-04-24T02:07:57.149Z,5.40
2024-04-24T02:11:00.745Z,5.90
2024-04-24T02:14:04.397Z,5.80
2024-04-24T02:17:07.994Z,5.50
2024-04-24T02:20:11.586Z,6.00
2024-04-24T02:23:20.800Z,6.00
2024-04-24T02:26:24.890Z,6.40
2024-04-24T02:29:34.512Z,5.70
2024-04-24T02:32:44.475Z,5.90
2024-04-24T02:35:47.919Z,6.10
2024-04-24T02:38:51.475Z,5.80
2024-04-24T02:41:54.985Z,6.00
2024-04-24T02:44:58.743Z,6.20
2024-04-24T02:48:02.005Z,5.90
2024-04-24T02:51:06.000Z,6.10
2024-04-24T02:54:09.368Z,6.10
2024-04-24T02:57:12.989Z,5.30
2024-04-24T03:00:16.932Z,6.10
2024-04-24T03:03:20.414Z,5.70
2024-04-24T03:06:23.803Z,5.50
2024-04-24T03:09:27.309Z,5.90
2024-04-24T03:12:31.221Z,5.40
2024-04-24T03:15:34.706Z,5.90
2024-04-24T03:18:38.010Z,5.40
2024-04-24T03:21:41.812Z,5.50
2024-04-24T03:24:46.246Z,5.40
2024-04-24T03:27:49.978Z,5.50
2024-04-24T03:30:55.087Z,5.30
2024-04-24T03:33:58.950Z,5.80
2024-04-24T03:37:02.145Z,5.60
2024-04-24T03:40:07.166Z,5.50
2024-04-24T03:43:10.974Z,5.60
2024-04-24T03:46:14.506Z,5.50
2024-04-24T03:49:17.948Z,5.20
2024-04-24T03:52:21.756Z,5.40
2024-04-24T03:55:25.091Z,5.20
2024-04-24T03:58:28.751Z,5.10
2024-04-24T04:01:32.194Z,5.50
2024-04-24T04:04:35.654Z,5.30
2024-04-24T04:07:39.481Z,5.20
2024-04-24T04:10:43.168Z,5.80
2024-04-24T04:13:46.926Z,5.50
2024-04-24T04:16:50.692Z,5.20
2024-04-24T04:19:54.262Z,5.90
2024-04-24T04:23:01.287Z,5.30
2024-04-24T04:26:04.957Z,5.60
2024-04-24T04:29:08.840Z,5.60
2024-04-24T04:32:13.319Z,5.90
2024-04-24T04:35:17.103Z,5.70
2024-04-24T04:38:20.431Z,5.50
2024-04-24T04:41:24.281Z,5.50
2024-04-24T04:44:27.660Z,5.40
2024-04-24T04:47:31.542Z,5.40
2024-04-24T04:50:35.135Z,5.20
2024-04-24T04:53:39.252Z,5.10
2024-04-24T04:56:42.888Z,4.80
2024-04-24T04:59:46.493Z,5.40
2024-04-24T05:02:50.098Z,5.40
2024-04-24T05:05:53.867Z,6.30
2024-04-24T05:08:57.601Z,6.00
2024-04-24T05:12:01.608Z,6.40
2024-04-24T05:15:06.351Z,5.90
2024-04-24T05:18:10.920Z,6.30
2024-04-24T05:21:14.436Z,6.40
2024-04-24T05:24:18.017Z,6.00
2024-04-24T05:27:39.811Z,6.00
2024-04-24T05:30:43.154Z,6.10
2024-04-24T05:33:46.826Z,5.60
2024-04-24T05:36:50.836Z,5.30
2024-04-24T05:39:54.031Z,5.70
2024-04-24T05:42:57.706Z,5.10
2024-04-24T05:46:01.088Z,5.20
2024-04-24T05:49:04.613Z,5.90
2024-04-24T05:52:10.820Z,5.70
2024-04-24T05:55:14.968Z,5.60
2024-04-24T05:58:18.477Z,5.70
2024-04-24T06:01:22.011Z,5.70
2024-04-24T06:04:26.114Z,5.50
2024-04-24T06:07:29.755Z,5.20
2024-04-24T06:10:33.256Z,5.50
2024-04-24T06:13:36.793Z,5.50
2024-04-24T06:16:40.379Z,5.80
2024-04-24T06:19:44.246Z,5.10
2024-04-24T06:22:47.619Z,5.90
2024-04-24T06:25:51.382Z,5.10
2024-04-24T06:28:54.841Z,5.50
2024-04-24T06:31:58.807Z,4.60
2024-04-24T06:35:03.721Z,4.60
2024-04-24T06:38:08.366Z,4.60
2024-04-24T06:41:15.236Z,4.70
2024-04-24T06:44:19.040Z,4.40
2024-04-24T06:47:22.656Z,4.70
2024-04-24T06:50:26.426Z,4.60
2024-04-24T06:53:31.730Z,4.60
2024-04-24T06:56:36.605Z,4.60
2024-04-24T06:59:40.269Z,5.00
2024-04-24T07:02:43.723Z,4.90
2024-04-24T07:05:47.008Z,5.00
2024-04-24T07:08:50.567Z,5.60
2024-04-24T07:11:54.446Z,5.40
2024-04-24T07:14:58.683Z,5.40
2024-04-24T07:18:02.361Z,5.00
2024-04-24T07:21:06.314Z,5.30
2024-04-24T07:24:10.058Z,6.00
2024-04-24T07:27:15.899Z,5.80
2024-04-24T07:30:23.019Z,5.70
2024-04-24T07:33:26.283Z,5.70
2024-04-24T07:36:29.624Z,6.10
2024-04-24T07:39:33.212Z,5.70
2024-04-24T07:42:37.073Z,6.30
2024-04-24T07:45:40.669Z,6.10
2024-04-24T07:48:44.050Z,5.90
2024-04-24T07:51:47.968Z,5.90
2024-04-24T07:54:51.222Z,5.70
2024-04-24T07:57:54.639Z,5.80
2024-04-24T08:00:58.059Z,6.30
2024-04-24T08:04:01.490Z,6.80
2024-04-24T08:07:05.337Z,6.20
2024-04-24T08:10:10.179Z,6.60
2024-04-24T08:13:13.415Z,7.20
2024-04-24T08:16:17.057Z,7.00
2024-04-24T08:19:20.538Z,7.30
2024-04-24T08:22:24.267Z,6.90
2024-04-24T08:25:27.716Z,7.20
2024-04-24T08:28:38.490Z,7.50
2024-04-24T08:31:45.014Z,7.90
2024-04-24T08:34:48.323Z,7.30
2024-04-24T08:37:51.703Z,8.20
2024-04-24T08:40:55.191Z,8.50
2024-04-24T08:43:59.954Z,7.40
2024-04-24T08:47:05.483Z,8.00
2024-04-24T08:50:09.524Z,8.20
2024-04-24T08:53:15.294Z,7.40
2024-04-24T08:56:20.707Z,9.00
2024-04-24T08:59:28.636Z,9.20
2024-04-24T09:02:34.084Z,9.30
2024-04-24T09:05:37.959Z,9.40
2024-04-24T09:08:42.215Z,9.80
2024-04-24T09:11:45.977Z,9.80
2024-04-24T09:14:49.568Z,10.30
2024-04-24T09:17:53.326Z,11.10
2024-04-24T09:20:57.434Z,10.50
2024-04-24T09:24:01.329Z,11.20
2024-04-24T09:27:05.212Z,11.60
2024-04-24T09:30:12.654Z,11.60
2024-04-24T09:33:17.401Z,11.20
2024-04-24T09:36:21.251Z,11.20
2024-04-24T09:39:25.822Z,12.10
2024-04-24T09:42:29.557Z,11.30
2024-04-24T09:45:33.132Z,13.10
2024-04-24T09:48:37.376Z,12.40
2024-04-24T09:51:40.792Z,12.40
2024-04-24T09:54:45.595Z,12.80
2024-04-24T09:57:49.645Z,12.90
2024-04-24T10:00:54.592Z,13.70
2024-04-24T10:03:58.856Z,14.80
2024-04-24T10:07:04.097Z,13.50
2024-04-24T10:10:10.394Z,14.40
2024-04-24T10:13:14.588Z,14.00
2024-04-24T10:16:18.008Z,14.60
2024-04-24T10:19:22.707Z,15.70
2024-04-24T10:22:26.914Z,14.80
2024-04-24T10:25:31.763Z,16.10
2024-04-24T10:28:36.482Z,15.10
2024-04-24T10:31:40.545Z,16.00
2024-04-24T10:34:44.157Z,16.20
2024-04-24T10:37:49.814Z,15.20
2024-04-24T10:40:53.390Z,16.20
2024-04-24T10:43:57.636Z,16.40
2024-04-24T10:47:00.963Z,16.80
2024-04-24T10:50:14.006Z,17.10
2024-04-24T10:53:19.002Z,16.70
2024-04-24T10:56:29.616Z,17.20
2024-04-24T10:59:35.209Z,14.60
2024-04-24T11:02:38.991Z,15.90
2024-04-24T11:05:42.826Z,16.90
2024-04-24T11:08:50.635Z,14.60
2024-04-24T11:11:56.944Z,16.00
2024-04-24T11:15:00.669Z,16.80
2024-04-24T11:18:05.099Z,16.10
2024-04-24T11:21:08.788Z,16.30
2024-04-24T11:24:12.308Z,15.50
2024-04-24T11:27:16.521Z,16.10
2024-04-24T11:30:21.556Z,16.00
2024-04-24T11:33:25.492Z,16.10
2024-04-24T11:36:29.701Z,15.00
2024-04-24T11:39:33.234Z,15.50
2024-04-24T11:42:43.016Z,14.50
2024-04-24T11:45:46.404Z,15.40
2024-04-24T11:48:52.422Z,14.00
2024-04-24T11:51:57.063Z,15.00
2024-04-24T11:55:03.074Z,15.40
2024-04-24T11:58:11.128Z,14.80
2024-04-24T12:01:14.731Z,14.70
2024-04-24T12:04:18.357Z,15.40
2024-04-24T12:07:21.623Z,13.90
2024-04-24T12:10:25.618Z,13.70
2024-04-24T12:13:31.271Z,13.20
2024-04-24T12:16:35.013Z,14.30
2024-04-24T12:19:38.524Z,12.60
2024-04-24T12:22:42.317Z,14.00
2024-04-24T12:25:46.019Z,13.30
2024-04-24T12:28:50.023Z,13.10
2024-04-24T12:31:53.578Z,12.60
2024-04-24T12:34:58.619Z,11.60
2024-04-24T12:38:02.704Z,11.30
2024-04-24T12:41:06.738Z,12.80
2024-04-24T12:44:10.592Z,12.60
2024-04-24T12:47:14.230Z,11.50
2024-04-24T12:50:18.457Z,12.60
2024-04-24T12:53:22.287Z,11.50
2024-04-24T12:56:26.457Z,11.80
2024-04-24T12:59:30.494Z,10.40
2024-04-24T13:02:35.177Z,10.70
2024-04-24T13:05:38.820Z,10.20
2024-04-24T13:08:42.429Z,9.10
2024-04-24T13:11:46.153Z,10.60
2024-04-24T13:14:49.747Z,9.00
2024-04-24T13:17:53.609Z,8.30
2024-04-24T13:20:57.488Z,10.20
2024-04-24T13:24:01.390Z,10.30
2024-04-24T13:27:05.498Z,10.60
2024-04-24T13:30:10.530Z,9.40
2024-04-24T13:33:14.263Z,9.10
2024-04-24T13:36:19.833Z,9.20
2024-04-24T13:39:23.724Z,8.80
2024-04-24T13:42:27.216Z,8.60
2024-04-24T13:45:30.839Z,8.60
2024-04-24T13:48:35.429Z,8.50
2024-04-24T13:51:40.465Z,8.30
2024-04-24T13:54:43.834Z,7.40
2024-04-24T13:57:47.255Z,7.60
2024-04-24T14:00:51.267Z,8.50
2024-04-24T14:03:54.800Z,7.60
2024-04-24T14:06:58.409Z,7.40
2024-04-24T14:10:01.808Z,7.80
2024-04-24T14:13:05.862Z,7.10
2024-04-24T14:16:14.041Z,7.20
2024-04-24T14:19:17.566Z,7.20
2024-04-24T14:22:21.395Z,7.20
2024-04-24T14:25:25.141Z,6.80
2024-04-24T14:28:28.560Z,6.60
2024-04-24T14:31:32.224Z,6.50
2024-04-24T14:34:37.103Z,6.40
2024-04-24T14:37:41.669Z,6.70
2024-04-24T14:40:45.222Z,6.90
2024-04-24T14:43:48.745Z,6.90
2024-04-24T14:46:52.049Z,6.30
2024-04-24T14:49:55.484Z,6.80
2024-04-24T14:52:59.984Z,7.20
2024-04-24T14:56:05.627Z,7.20
2024-04-24T14:59:09.245Z,7.10
2024-04-24T15:02:13.086Z,6.80
2024-04-24T15:05:16.628Z,6.60
2024-04-24T15:08:20.926Z,7.00
2024-04-24T15:11:25.559Z,7.60
2024-04-24T15:14:29.560Z,6.80
2024-04-24T15:17:34.660Z,7.20
2024-04-24T15:20:38.467Z,7.50
2024-04-24T15:23:46.251Z,7.70
2024-04-24T15:26:50.346Z,7.90
2024-04-24T15:29:53.786Z,8.40
2024-04-24T15:32:57.905Z,8.00
2024-04-24T15:36:01.768Z,7.50
2024-04-24T15:39:05.432Z,7.60
2024-04-24T15:42:09.196Z,8.10
2024-04-24T15:45:14.824Z,6.40
2024-04-24T15:48:20.004Z,7.20
2024-04-24T15:51:23.415Z,6.70
2024-04-24T15:54:26.939Z,7.20
2024-04-24T15:57:30.477Z,7.70
2024-04-24T16:00:33.864Z,8.50
2024-04-24T16:03:37.575Z,6.90
2024-04-24T16:06:41.712Z,8.30
2024-04-24T16:09:45.512Z,7.40
2024-04-24T16:12:48.725Z,7.00
2024-04-24T16:15:52.404Z,7.90
2024-04-24T16:18:56.450Z,7.50
2024-04-24T16:22:00.703Z,7.30
2024-04-24T16:25:04.448Z,7.10
2024-04-24T16:28:08.159Z,7.30
2024-04-24T16:31:12.617Z,7.60
2024-04-24T16:34:16.463Z,7.90
2024-04-24T16:37:20.367Z,7.80
2024-04-24T16:40:23.964Z,7.60
2024-04-24T16:43:28.230Z,7.80
2024-04-24T16:46:32.241Z,7.50
2024-04-24T16:49:37.748Z,7.90
2024-04-24T16:52:41.406Z,7.80
2024-04-24T16:55:46.947Z,7.70
2024-04-24T16:58:51.200Z,8.10
2024-04-24T17:01:54.762Z,7.90
2024-04-24T17:04:59.064Z,7.30
2024-04-24T17:08:03.208Z,7.40
2024-04-24T17:11:07.347Z,8.00
2024-04-24T17:14:11.231Z,7.00
2024-04-24T17:17:15.300Z,7.60
2024-04-24T17:20:19.490Z,8.10
2024-04-24T17:23:23.449Z,7.80
2024-04-24T17:26:33.648Z,8.10
2024-04-24T17:29:43.103Z,7.60
2024-04-24T17:32:46.873Z,7.70
2024-04-24T17:35:51.888Z,6.70
2024-04-24T17:38:55.151Z,7.20
2024-04-24T17:42:00.438Z,7.70
2024-04-24T17:45:05.346Z,7.00
2024-04-24T17:48:10.140Z,7.60
2024-04-24T17:51:13.700Z,7.00
2024-04-24T17:54:18.738Z,6.80
2024-04-24T17:57:22.128Z,6.70
2024-04-24T18:00:26.064Z,7.30
2024-04-24T18:03:29.991Z,6.90
2024-04-24T18:06:34.895Z,7.70
2024-04-24T18:09:38.818Z,6.70
2024-04-24T18:12:42.542Z,6.70
2024-04-24T18:15:47.826Z,7.00
2024-04-24T18:18:53.336Z,6.50
2024-04-24T18:21:57.520Z,7.30
2024-04-24T18:25:01.317Z,7.00
2024-04-24T18:28:06.101Z,7.00
2024-04-24T18:31:10.817Z,7.30
2024-04-24T18:34:16.516Z,6.60
2024-04-24T18:37:21.302Z,7.30
2024-04-24T18:40:24.722Z,7.50
2024-04-24T18:43:28.583Z,6.70
2024-04-24T18:46:32.705Z,7.30
2024-04-24T18:49:36.307Z,7.60
2024-04-24T18:52:40.374Z,7.80
2024-04-24T18:55:45.282Z,7.10
2024-04-24T18:58:49.530Z,7.60
2024-04-24T19:01:53.619Z,6.70
2024-04-24T19:04:58.090Z,6.90
2024-04-24T19:08:02.393Z,6.90
2024-04-24T19:11:06.092Z,6.50
2024-04-24T19:14:10.746Z,7.30
2024-04-24T19:17:14.771Z,7.10
2024-04-24T19:20:19.105Z,6.40
2024-04-24T19:23:22.828Z,7.20
2024-04-24T19:26:26.464Z,6.80
2024-04-24T19:29:29.930Z,7.90
2024-04-24T19:32:34.018Z,7.40
2024-04-24T19:35:37.963Z,7.60
2024-04-24T19:38:42.529Z,8.00
2024-04-24T19:41:46.203Z,8.20
2024-04-24T19:44:50.187Z,7.90
2024-04-24T19:47:54.993Z,8.50
2024-04-24T19:50:59.377Z,8.40
2024-04-24T19:54:03.748Z,8.60
2024-04-24T19:57:07.432Z,9.30
2024-04-24T20:00:13.373Z,9.90
2024-04-24T20:03:17.414Z,9.60
2024-04-24T20:06:21.708Z,9.30
2024-04-24T20:09:28.491Z,9.70
2024-04-24T20:12:31.869Z,9.20
2024-04-24T20:15:36.873Z,9.60
2024-04-24T20:18:41.075Z,8.90
2024-04-24T20:21:46.320Z,8.80
2024-04-24T20:24:50.381Z,8.80
2024-04-24T20:27:54.321Z,8.90
2024-04-24T20:30:58.084Z,9.10
2024-04-24T20:34:03.410Z,8.90
2024-04-24T20:37:07.126Z,8.90
2024-04-24T20:40:11.506Z,8.90
2024-04-24T20:43:16.451Z,9.20
2024-04-24T20:46:20.176Z,9.10
2024-04-24T20:49:23.565Z,9.40
2024-04-24T20:52:27.041Z,10.40
2024-04-24T20:55:30.574Z,9.90
2024-04-24T20:58:34.466Z,10.10
2024-04-24T21:01:38.800Z,10.70
2024-04-24T21:04:42.722Z,9.80
2024-04-24T21:07:45.975Z,10.20
2024-04-24T21:10:51.478Z,10.40
2024-04-24T21:13:57.160Z,11.00
2024-04-24T21:17:00.848Z,10.70
2024-04-24T21:20:05.211Z,11.40
2024-04-24T21:23:08.895Z,12.00
2024-04-24T21:26:12.546Z,10.90
2024-04-24T21:29:16.727Z,11.50
2024-04-24T21:32:21.450Z,11.80
2024-04-24T21:35:24.906Z,12.40
2024-04-24T21:38:31.855Z,12.40
2024-04-24T21:41:35.570Z,12.20
2024-04-24T21:44:38.955Z,12.30
2024-04-24T21:47:42.615Z,12.40
2024-04-24T21:50:50.229Z,12.00
2024-04-24T21:53:57.319Z,12.30
2024-04-24T21:57:02.083Z,12.60
2024-04-24T22:00:06.709Z,12.30
2024-04-24T22:03:10.241Z,11.00
2024-04-24T22:06:18.567Z,11.10
2024-04-24T22:09:22.523Z,12.00
2024-04-24T22:12:26.094Z,11.70
2024-04-24T22:15:32.630Z,10.30
2024-04-24T22:18:37.172Z,10.20
2024-04-24T22:21:41.358Z,10.10
2024-04-24T22:24:45.272Z,10.10
2024-04-24T22:27:48.659Z,10.20
2024-04-24T22:30:52.663Z,9.60
2024-04-24T22:33:55.978Z,9.70
2024-04-24T22:36:59.873Z,9.40
2024-04-24T22:40:03.599Z,9.00
2024-04-24T22:43:07.286Z,8.70
2024-04-24T22:46:14.736Z,9.50
2024-04-24T22:49:18.339Z,9.00
2024-04-24T22:52:21.640Z,9.50
2024-04-24T22:55:25.293Z,10.30
2024-04-24T22:58:28.484Z,10.40
2024-04-24T23:01:32.270Z,10.10
2024-04-24T23:04:35.466Z,10.50
2024-04-24T23:07:39.723Z,9.40
2024-04-24T23:10:44.737Z,10.00
2024-04-24T23:13:47.989Z,9.60
2024-04-24T23:16:51.618Z,9.60
2024-04-24T23:19:54.973Z,10.20
2024-04-24T23:22:58.774Z,10.10
2024-04-24T23:26:02.957Z,10.40
2024-04-24T23:29:06.467Z,10.40
2024-04-24T23:32:10.049Z,10.00
2024-04-24T23:35:13.483Z,9.70
2024-04-24T23:38:17.360Z,9.50
2024-04-24T23:41:20.778Z,9.90
2024-04-24T23:44:24.469Z,9.40
2024-04-24T23:47:28.059Z,10.10
2024-04-24T23:50:31.503Z,9.60
2024-04-24T23:53:35.397Z,9.80
2024-04-24T23:56:39.539Z,9.40
2024-04-24T23:59:42.962Z,9.70
